Afton, Michigan
Current Conditions -  °F | °C
As of 7:17 PM on Friday 21 Nov 2014 (Local Time) from KSLH Reporting Station
Clear Clear  
Wind Chill: 16°   Ceiling: Unl
Heat Index: 25°   Visibility: 10mi
Dew Point: 16°   Wind: 9mph
Humidity: 67%   Direction: 190°S
Pressure: 30.19"   Gusts: NA
Location:  45.36°N, 84.47°W
Report Text: KSLH 220017Z AUTO 19008KT 10SM CLR M03/M08 A3019 RMK AO2 T10371090
Loading
Personal Weather Stations






























Interactive Weather Map New forecast layout! Learn more

10-Day Weather Forecast

Advertisements
Track Severe Weather on mobile